createdAt,value
2022-10-20T05:27:23.482Z,10.80
2022-10-20T05:32:25.263Z,10.80
2022-10-20T05:37:27.314Z,10.90
2022-10-20T05:42:29.427Z,10.90
2022-10-20T05:47:31.300Z,10.90
2022-10-20T05:52:35.388Z,10.90
2022-10-20T05:57:37.459Z,10.90
2022-10-20T06:02:39.515Z,10.90
2022-10-20T06:07:41.396Z,11.00
2022-10-20T06:12:43.180Z,11.00
2022-10-20T06:17:46.922Z,11.00
2022-10-20T06:22:48.708Z,11.00
2022-10-20T06:27:50.527Z,11.00
2022-10-20T06:32:55.769Z,11.10
2022-10-20T06:37:57.557Z,11.10
2022-10-20T06:42:59.480Z,11.10
2022-10-20T06:48:01.306Z,11.20
2022-10-20T06:53:03.152Z,11.20
2022-10-20T06:58:04.934Z,11.30
2022-10-20T07:03:06.719Z,11.30
2022-10-20T07:08:08.501Z,11.40
2022-10-20T07:13:10.315Z,11.40
2022-10-20T07:18:12.104Z,11.50
2022-10-20T07:23:13.953Z,11.60
2022-10-20T07:28:15.815Z,11.60
2022-10-20T07:33:17.630Z,11.70
2022-10-20T07:38:19.530Z,11.70
2022-10-20T07:43:21.401Z,11.80
2022-10-20T07:48:23.185Z,11.90
2022-10-20T07:53:25.012Z,12.00
2022-10-20T07:58:26.850Z,12.00
2022-10-20T08:03:28.703Z,12.10
2022-10-20T08:08:30.652Z,12.20
2022-10-20T08:13:32.789Z,12.30
2022-10-20T08:18:40.057Z,12.30
2022-10-20T08:23:43.947Z,12.40
2022-10-20T08:28:46.316Z,12.50
2022-10-20T08:33:52.349Z,12.60
2022-10-20T08:38:54.880Z,12.70
2022-10-20T08:43:58.169Z,12.80
2022-10-20T08:49:00.226Z,12.80
2022-10-20T08:54:02.835Z,12.90
2022-10-20T08:59:34.620Z,13.00
2022-10-20T09:09:50.199Z,13.30
2022-10-20T09:14:52.065Z,13.40
2022-10-20T09:19:55.876Z,13.50
2022-10-20T09:24:58.901Z,13.60
2022-10-20T09:30:18.302Z,13.70
2022-10-20T09:35:34.072Z,13.80
2022-10-20T09:40:36.137Z,13.90
2022-10-20T09:45:39.555Z,13.90
2022-10-20T09:50:46.754Z,14.00
2022-10-20T09:55:49.985Z,14.00
2022-10-20T10:01:06.609Z,14.10
2022-10-20T10:06:22.396Z,14.10
2022-10-20T10:11:33.251Z,14.20
2022-10-20T10:16:42.662Z,14.20
2022-10-20T10:21:57.948Z,14.20
2022-10-20T10:26:59.744Z,14.20
2022-10-20T10:32:21.821Z,14.20
2022-10-20T10:37:23.915Z,14.20
2022-10-20T10:42:42.650Z,14.20
2022-10-20T10:47:53.535Z,14.20
2022-10-20T10:53:07.449Z,14.10
2022-10-20T10:58:19.961Z,14.10
2022-10-20T11:03:21.746Z,14.00
2022-10-20T11:08:41.569Z,14.00
2022-10-20T11:14:16.193Z,14.00
2022-10-20T11:19:42.437Z,14.00
2022-10-20T11:24:57.023Z,14.00
2022-10-20T11:30:15.210Z,14.00
2022-10-20T11:35:16.993Z,14.00
2022-10-20T11:40:31.166Z,14.10
2022-10-20T11:45:38.424Z,14.20
2022-10-20T11:50:42.582Z,14.30
2022-10-20T11:56:10.036Z,14.40
2022-10-20T12:01:49.468Z,14.40
2022-10-20T12:07:33.180Z,14.50
2022-10-20T12:13:07.230Z,14.60
2022-10-20T12:18:19.835Z,14.60
2022-10-20T12:23:44.131Z,14.80
2022-10-20T12:28:46.108Z,15.00
2022-10-20T12:33:54.059Z,15.10
2022-10-20T12:39:17.411Z,15.20
2022-10-20T12:44:20.100Z,15.30
2022-10-20T12:49:28.459Z,15.50
2022-10-20T12:54:39.656Z,15.60
2022-10-20T12:59:41.835Z,15.80
2022-10-20T13:05:06.415Z,16.00
2022-10-20T13:10:26.570Z,16.10
2022-10-20T13:15:29.439Z,16.20
2022-10-20T13:21:09.974Z,16.30
2022-10-20T13:26:22.029Z,16.40
2022-10-20T13:31:37.686Z,16.60
2022-10-20T13:37:12.273Z,16.80
2022-10-20T13:42:44.673Z,17.00
2022-10-20T13:48:08.430Z,17.20
2022-10-20T13:53:31.374Z,17.50
2022-10-20T13:58:34.295Z,17.90
2022-10-20T14:03:45.395Z,18.20
2022-10-20T14:08:47.354Z,18.40
2022-10-20T14:13:49.325Z,18.60
2022-10-20T14:19:06.372Z,18.70
2022-10-20T14:24:13.581Z,18.70
2022-10-20T14:29:16.735Z,18.70
2022-10-20T14:34:25.371Z,18.70
2022-10-20T14:39:39.504Z,18.60
2022-10-20T14:44:43.907Z,18.60
2022-10-20T14:49:51.569Z,18.70
2022-10-20T14:54:54.299Z,18.70
2022-10-20T15:00:20.845Z,18.70
2022-10-20T15:05:37.574Z,18.90
2022-10-20T15:10:39.358Z,19.00
2022-10-20T15:15:41.186Z,19.00
2022-10-20T15:20:47.830Z,19.00
2022-10-20T15:26:05.061Z,19.00
2022-10-20T15:31:28.099Z,19.00
2022-10-20T15:36:34.718Z,19.10
2022-10-20T15:41:37.071Z,19.10
2022-10-20T15:46:38.986Z,19.20
2022-10-20T15:51:43.597Z,19.30
2022-10-20T15:56:45.671Z,19.20
2022-10-20T16:01:47.547Z,19.20
2022-10-20T16:06:52.451Z,19.20
2022-10-20T16:11:55.023Z,19.10
2022-10-20T16:16:59.514Z,19.00
2022-10-20T16:22:01.296Z,18.90
2022-10-20T16:27:05.798Z,18.80
2022-10-20T16:32:07.839Z,18.70
2022-10-20T16:37:09.631Z,18.70
2022-10-20T16:42:11.464Z,18.60
2022-10-20T16:47:13.417Z,18.50
2022-10-20T16:52:15.319Z,18.40
2022-10-20T16:57:17.262Z,18.30
2022-10-20T17:02:19.254Z,18.20
2022-10-20T17:07:21.125Z,18.10
2022-10-20T17:12:22.949Z,18.00
2022-10-20T17:17:25.253Z,17.90
2022-10-20T17:22:27.269Z,17.80
2022-10-20T17:27:29.028Z,17.70
2022-10-20T17:32:30.831Z,17.60
2022-10-20T17:37:33.069Z,17.40
